Albuquerque, NM

9:28 PM MDT on October 24, 2014 (GMT -0600)
UNM Area West | Change Station
CLOSE
Current Station
Personal Weather Station
Location: Albuquerque, NM
Elevation: 5133 ft
Nearby Weather Stations

Elev 5133 ft 35.09 °N, 106.63 °W | Updated 6 minutes ago

Clear
Clear
61.8 °F
Feels Like 61.8 °F
N
0.0
Wind Variable Wind from SE
Gusts 1.0 mph

Today
High -- | Low -- °F
--% Chance of Precip.
Yesterday
High -- | Low -- °F
Precip. -- in
7:20 AM 6:20 PM
New Moon, 2% visible
Pressure 30.12 in
Visibility 10.0 miles
Clouds Clear
Dew Point 38 °F
Humidity 42%
Rainfall 0.00 in
Snow Depth Not available.
UV 0 out of 12
Pollen 3.50 out of 12
Air Quality Not available.
Flu Activity Sporadic
METAR KABQ 250252Z 00000KT 10SM CLR 18/01 A3026 RMK AO2 SLP199 T01830011 53011

More Conditions Fewer Conditions

Pressure 30.12 in
Visibility 10.0 miles
Clouds Clear
Dew Point 38 °F
Humidity 42%
Rainfall 0.00 in
Snow Depth Not available.
UV 0 out of 12
Pollen 3.50 out of 12
Air Quality Not available.
Flu Activity Sporadic
METAR KABQ 250252Z 00000KT 10SM CLR 18/01 A3026 RMK AO2 SLP199 T01830011 53011

More Conditions Fewer Conditions

10-Day Weather Forecast

Almanac

Astronomy

Oct. 24, 2014 Rise Set
Actual Time 7:20 AM MDT 6:20 PM MDT
Civil Twilight 6:54 AM MDT 6:46 PM MDT
Nautical Twilight 6:24 AM MDT 7:16 PM MDT
Astronomical Twilight 5:55 AM MDT 7:45 PM MDT
Moon 8:01 AM MDT (10/24) 7:04 PM MDT (10/24)
Length of Visible Light 11h 51m
Length of Day
11h 00m
Tomorrow will be 2m 2s shorter.
New Moon, 2% of the Moon is Illuminated
Today
New Moon
Oct 30
First Quarter
Nov 6
Full
Nov 14
Last Quarter
Nov 22
New

Today's Extremes

State Highs State Lows

Community

WunderPhotos

Upload Photos

1,764,769 photos uploaded!

Nearby

Snow Depth

Station Depth Elevation
Quemazon 0 in 9500 ft
Senorita Divide #2 0 in 8600 ft
Santa Fe 1 in 11445 ft
Elk Cabin 0 in 8210 ft
Wesner Springs 0 in 11120 ft

Earthquake Activity

City Distance Mag. Time & Date
No recent earthquake activity has been reported nearby.
Minimum magnitude displayed is 2.5.

Coastal Water Temperatures

Place Temperature
No Stations Reporting

Nearby Weather Stations